Holdrege, NE

7:49 AM CDT on July 25, 2016 (GMT -0500)
Brewster | | Change Station

Elev 2310 ft 40.45 °N, 99.34 °W | Updated 14 minutes ago

Mostly Cloudy
Mostly Cloudy
65 °F
Feels Like 65 °F
N
0
Wind Variable Wind from North

Today
High -- | Low -- °F
--% Chance of Precip.
Yesterday
High -- | Low -- °F
Precip. -- in
Pressure 30.17 in
Visibility 5.0 miles
Clouds Mostly Cloudy 4700 ft
Dew Point 63 °F
Humidity 94%
Rainfall 0.00 in
Snow Depth Not available.
6:28 AM 8:58 PM
Waning Gibbous, 66% visible
METAR KHDE 251235Z AUTO 00000KT 5SM BR BKN047 18/17 A3017 RMK AO2 T01840174
Pressure 30.17 in
Visibility 5.0 miles
Clouds Mostly Cloudy 4700 ft
Dew Point 63 °F
Humidity 94%
Rainfall 0.00 in
Snow Depth Not available.
6:28 AM 8:58 PM
Waning Gibbous, 66% visible
METAR KHDE 251235Z AUTO 00000KT 5SM BR BKN047 18/17 A3017 RMK AO2 T01840174

10-Day Weather Forecast

Almanac

Astronomy

Jul. 25, 2016 Rise Set
Actual Time
Civil Twilight
Nautical Twilight
Astronomical Twilight
Moon
Length of Visible Light
Length of Day
Tomorrow will be .
, % of the Moon is Illuminated

Today's Extremes

State Highs State Lows

Community

WunderPhotos

Upload Photos

1,927,296 photos uploaded!

WunderBlog® & News

Nearby

Air Quality

  Air Quality AQ Index Pollutant
Not available.

Snow Depth

Station Depth Elevation

Earthquake Activity

City Distance Mag. Time & Date
Minimum magnitude displayed is 2.5.

Coastal Water Temperatures

Place Temperature

Stations

Nearby Weather Stations

Station Location Temp. Windchill Dew Point Humidity Wind Precip. Elev Updated Type
                   

Watches & Warnings

There are currently no watches in effect.